Time;durP1;ratioP1;P1;durP2;ratioP2;P2;SDS_P1;SDS_P2;PMS_P1;PMS_P2;Temp;Humidity;BMP_temperature;BMP_pressure;BME280_temperature;BME280_humidity;BME280_pressure;Samples;Min_cycle;Max_cycle;Signal;HPM_P1;HPM_P2
2022/03/08 00:00:12;;;;;;;16.17;8.05;;;;;;;2.08;100.00;102623.28;10108663;28;20047;-69
2022/03/08 00:05:09;;;;;;;22.23;9.23;;;;;;;2.20;100.00;102626.97;10082479;28;20445;-70
2022/03/08 00:10:08;;;;;;;16.00;8.05;;;;;;;2.07;100.00;102629.75;10070746;28;20110;-70
2022/03/08 00:15:10;;;;;;;19.17;8.75;;;;;;;2.04;100.00;102622.06;10082447;28;20051;-69
2022/03/08 00:20:08;;;;;;;20.90;8.27;;;;;;;1.88;100.00;102616.13;10079982;28;20449;-70
2022/03/08 00:25:06;;;;;;;12.68;7.18;;;;;;;1.70;100.00;102610.56;10088828;28;20055;-70
2022/03/08 00:30:06;;;;;;;16.67;7.78;;;;;;;1.72;100.00;102608.50;10105947;28;20059;-70
2022/03/08 00:35:04;;;;;;;19.63;8.63;;;;;;;1.65;100.00;102607.69;10111334;28;20097;-70
2022/03/08 00:40:01;;;;;;;15.05;8.10;;;;;;;1.62;100.00;102608.91;10085571;28;20091;-69
2022/03/08 00:44:58;;;;;;;17.58;9.10;;;;;;;1.59;100.00;102603.13;10086771;28;20362;-70
2022/03/08 00:49:54;;;;;;;15.85;8.00;;;;;;;1.49;100.00;102602.75;10107194;28;20133;-69
2022/03/08 00:54:51;;;;;;;16.35;8.57;;;;;;;1.43;100.00;102599.84;10106288;28;20093;-72
2022/03/08 00:59:47;;;;;;;16.40;8.60;;;;;;;1.44;100.00;102590.72;10114679;28;20078;-71
2022/03/08 01:04:44;;;;;;;16.98;8.07;;;;;;;1.35;100.00;102597.38;10108698;28;20138;-71
2022/03/08 01:09:41;;;;;;;17.80;8.70;;;;;;;1.19;100.00;102597.81;10110681;28;20054;-70
2022/03/08 01:14:38;;;;;;;15.60;8.10;;;;;;;1.27;100.00;102584.09;10090817;28;20284;-70
2022/03/08 01:19:34;;;;;;;15.70;8.73;;;;;;;1.22;100.00;102586.59;10108394;28;20082;-72
2022/03/08 01:24:31;;;;;;;15.45;8.48;;;;;;;1.18;100.00;102579.97;10103633;28;20053;-70
2022/03/08 01:29:27;;;;;;;15.65;7.80;;;;;;;1.16;100.00;102573.97;10106176;28;20047;-71
2022/03/08 01:34:24;;;;;;;16.70;8.52;;;;;;;1.09;100.00;102576.69;10113491;28;20077;-69
2022/03/08 01:39:21;;;;;;;18.38;9.18;;;;;;;1.12;100.00;102570.03;10079582;28;20059;-70
2022/03/08 01:44:19;;;;;;;19.63;9.93;;;;;;;1.10;100.00;102566.72;10082559;28;20120;-70
2022/03/08 01:49:15;;;;;;;17.55;9.07;;;;;;;1.01;100.00;102575.00;10083223;28;20676;-70
2022/03/08 01:54:12;;;;;;;19.60;10.45;;;;;;;0.99;100.00;102570.88;10109582;28;20481;-70
2022/03/08 01:59:08;;;;;;;17.27;9.20;;;;;;;0.95;100.00;102562.41;10110268;28;20043;-70
2022/03/08 02:04:05;;;;;;;20.33;8.82;;;;;;;0.84;100.00;102566.53;10089908;28;20580;-70
2022/03/08 02:09:02;;;;;;;18.10;8.70;;;;;;;0.77;100.00;102563.00;10094889;28;20047;-70
2022/03/08 02:13:58;;;;;;;20.75;9.32;;;;;;;0.77;100.00;102554.94;10103409;28;20659;-72
2022/03/08 02:18:55;;;;;;;19.15;8.90;;;;;;;0.73;100.00;102550.16;10102323;28;20101;-71
2022/03/08 02:23:52;;;;;;;18.48;8.57;;;;;;;0.70;100.00;102545.22;10078019;28;20077;-71
2022/03/08 02:28:49;;;;;;;18.10;8.27;;;;;;;0.60;100.00;102542.91;10083068;28;20106;-72
2022/03/08 02:33:45;;;;;;;20.25;10.02;;;;;;;0.69;100.00;102543.53;10080081;28;20039;-71
2022/03/08 02:38:42;;;;;;;16.95;9.05;;;;;;;0.58;100.00;102540.44;10101882;28;20101;-70
2022/03/08 02:43:39;;;;;;;16.67;8.68;;;;;;;0.57;100.00;102541.47;10112865;28;20109;-69
2022/03/08 02:48:38;;;;;;;20.00;9.40;;;;;;;0.55;100.00;102538.13;10099739;28;20047;-70
2022/03/08 02:53:35;;;;;;;20.30;9.55;;;;;;;0.49;100.00;102541.66;10110626;28;20219;-70
2022/03/08 02:58:31;;;;;;;18.50;9.55;;;;;;;0.47;100.00;102534.84;10094168;28;20065;-70
2022/03/08 03:03:28;;;;;;;16.60;8.57;;;;;;;0.42;100.00;102540.84;10104016;28;20077;-70
2022/03/08 03:08:24;;;;;;;17.83;8.27;;;;;;;0.45;100.00;102536.91;10102245;28;20047;-70
2022/03/08 03:13:21;;;;;;;20.38;8.98;;;;;;;0.38;100.00;102536.91;10095441;28;20046;-70
2022/03/08 03:18:17;;;;;;;16.65;9.15;;;;;;;0.38;100.00;102542.28;10094946;28;20468;-70
2022/03/08 03:23:14;;;;;;;15.40;8.43;;;;;;;0.39;100.00;102536.66;10108665;28;20344;-70
2022/03/08 03:28:11;;;;;;;14.10;7.72;;;;;;;0.34;100.00;102535.63;10081829;28;20682;-70
2022/03/08 03:33:07;;;;;;;15.98;8.40;;;;;;;0.31;100.00;102536.88;10075391;28;20109;-69
2022/03/08 03:38:04;;;;;;;18.63;8.13;;;;;;;0.26;100.00;102523.22;10104529;28;20158;-69
2022/03/08 03:43:00;;;;;;;16.33;7.85;;;;;;;0.24;100.00;102527.16;10109869;28;20090;-69
2022/03/08 03:47:57;;;;;;;17.25;7.82;;;;;;;0.17;100.00;102529.81;10088990;28;20134;-70
2022/03/08 03:52:54;;;;;;;15.60;7.97;;;;;;;0.19;100.00;102528.59;10108622;28;20130;-69
2022/03/08 03:57:50;;;;;;;16.20;7.97;;;;;;;0.08;100.00;102536.41;10114323;28;20483;-70
2022/03/08 04:02:46;;;;;;;17.67;8.38;;;;;;;0.02;100.00;102543.41;10088083;28;20073;-70
2022/03/08 04:07:43;;;;;;;18.20;7.85;;;;;;;-0.01;100.00;102538.47;10102137;28;20050;-69
2022/03/08 04:12:40;;;;;;;14.10;7.38;;;;;;;-0.04;100.00;102539.69;10104903;28;20496;-69
2022/03/08 04:17:37;;;;;;;14.23;7.47;;;;;;;-0.04;100.00;102546.94;10081411;28;20067;-69
2022/03/08 04:22:34;;;;;;;16.27;7.47;;;;;;;-0.08;100.00;102540.31;10071687;28;20493;-70
2022/03/08 04:27:30;;;;;;;11.90;7.55;;;;;;;-0.14;100.00;102538.41;10091313;28;20087;-69
2022/03/08 04:32:27;;;;;;;14.73;7.75;;;;;;;-0.10;100.00;102540.50;10140601;28;20079;-69
2022/03/08 04:37:23;;;;;;;18.45;7.63;;;;;;;-0.14;100.00;102543.78;10093108;28;20568;-70
2022/03/08 04:42:20;;;;;;;14.15;7.93;;;;;;;-0.19;100.00;102546.25;10094530;28;20114;-69
2022/03/08 04:47:16;;;;;;;15.70;7.78;;;;;;;-0.25;100.00;102558.66;10095028;28;20571;-69
2022/03/08 04:52:13;;;;;;;12.68;6.95;;;;;;;-0.28;100.00;102559.88;10101004;28;20051;-70
2022/03/08 04:57:09;;;;;;;15.25;7.80;;;;;;;-0.32;100.00;102569.38;10091185;28;20054;-72
2022/03/08 05:02:06;;;;;;;15.95;7.65;;;;;;;-0.33;100.00;102572.25;10082452;28;20065;-72
2022/03/08 05:07:02;;;;;;;16.52;7.93;;;;;;;-0.37;100.00;102582.59;10102191;28;20499;-72
2022/03/08 05:11:59;;;;;;;14.23;7.78;;;;;;;-0.42;100.00;102582.31;10100627;28;20043;-71
2022/03/08 05:16:55;;;;;;;17.15;7.95;;;;;;;-0.46;100.00;102578.41;10078142;28;20634;-71
2022/03/08 05:21:52;;;;;;;16.58;7.70;;;;;;;-0.50;100.00;102577.13;10080308;28;20047;-70
2022/03/08 05:26:48;;;;;;;14.75;6.80;;;;;;;-0.53;100.00;102583.72;10078517;28;20469;-70
2022/03/08 05:31:45;;;;;;;16.17;7.03;;;;;;;-0.52;100.00;102584.56;10086483;28;20156;-70
2022/03/08 05:36:41;;;;;;;12.90;7.18;;;;;;;-0.52;100.00;102589.94;10101040;28;20060;-69
2022/03/08 05:41:38;;;;;;;15.55;8.05;;;;;;;-0.52;100.00;102589.94;10113423;28;20059;-68
2022/03/08 05:46:34;;;;;;;13.90;7.43;;;;;;;-0.35;100.00;102590.44;10104436;28;20047;-70
2022/03/08 05:51:31;;;;;;;13.80;7.45;;;;;;;-0.27;100.00;102585.72;10090969;28;20105;-68
2022/03/08 05:56:27;;;;;;;14.77;8.10;;;;;;;-0.24;100.00;102587.19;10092994;28;20489;-68
2022/03/08 06:01:24;;;;;;;17.35;7.22;;;;;;;-0.43;100.00;102594.13;10095984;28;20059;-70
2022/03/08 06:06:20;;;;;;;17.08;7.05;;;;;;;-0.48;100.00;102601.94;10089343;28;20047;-69
2022/03/08 06:11:17;;;;;;;16.17;7.75;;;;;;;-0.57;100.00;102587.84;10087321;28;20098;-69
2022/03/08 06:16:13;;;;;;;13.45;6.70;;;;;;;-0.54;100.00;102592.81;10087659;28;20475;-69
2022/03/08 06:21:11;;;;;;;16.65;7.32;;;;;;;-0.53;100.00;102589.09;10089529;28;20477;-69
2022/03/08 06:26:08;;;;;;;15.27;8.00;;;;;;;-0.47;100.00;102592.84;10089210;28;20500;-68
2022/03/08 06:31:05;;;;;;;18.15;7.65;;;;;;;-0.49;100.00;102600.28;10073667;28;20059;-69
2022/03/08 06:36:02;;;;;;;17.30;7.75;;;;;;;-0.46;100.00;102594.53;10087645;28;20055;-69
2022/03/08 06:40:59;;;;;;;19.02;7.85;;;;;;;-0.47;100.00;102592.84;10073125;28;20138;-69
2022/03/08 06:45:56;;;;;;;18.42;8.13;;;;;;;-0.41;100.00;102592.06;10084589;28;20517;-69
2022/03/08 06:50:53;;;;;;;14.18;7.88;;;;;;;-0.38;100.00;102586.28;10110965;28;20061;-69
2022/03/08 06:55:50;;;;;;;15.80;7.20;;;;;;;-0.34;100.00;102587.56;10096334;28;20133;-69
2022/03/08 07:00:46;;;;;;;13.20;6.63;;;;;;;-0.28;100.00;102594.81;10111833;28;20105;-69
2022/03/08 07:05:43;;;;;;;16.75;6.97;;;;;;;-0.23;100.00;102583.47;10107458;28;20162;-69
2022/03/08 07:10:40;;;;;;;14.32;6.70;;;;;;;-0.13;100.00;102577.72;10108179;28;20620;-69
2022/03/08 07:15:38;;;;;;;15.63;7.82;;;;;;;-0.03;100.00;102583.53;10080936;28;20086;-69
2022/03/08 07:20:35;;;;;;;11.85;6.70;;;;;;;0.02;100.00;102586.44;10082887;28;20102;-69
2022/03/08 07:25:31;;;;;;;12.15;5.88;;;;;;;0.11;100.00;102590.63;10070660;28;20117;-69
2022/03/08 07:30:27;;;;;;;13.10;5.57;;;;;;;0.17;100.00;102589.00;10071238;28;20126;-69
2022/03/08 07:35:24;;;;;;;9.52;4.57;;;;;;;0.30;100.00;102582.81;10081411;28;20497;-69
2022/03/08 07:40:21;;;;;;;10.63;4.95;;;;;;;0.37;100.00;102583.66;10111372;28;20116;-69
2022/03/08 07:45:17;;;;;;;10.38;4.88;;;;;;;0.53;100.00;102588.66;10104234;28;20141;-69
2022/03/08 07:50:15;;;;;;;14.93;5.10;;;;;;;0.69;100.00;102587.44;10110527;28;20417;-69
2022/03/08 07:55:17;;;;;;;10.15;4.30;;;;;;;0.90;100.00;102586.41;10091167;28;20051;-69
2022/03/08 08:00:13;;;;;;;9.02;4.22;;;;;;;1.07;100.00;102583.28;10109282;28;20097;-69
2022/03/08 08:05:10;;;;;;;8.77;3.97;;;;;;;1.17;100.00;102583.72;10101636;28;20590;-69
2022/03/08 08:10:06;;;;;;;11.00;4.57;;;;;;;1.36;100.00;102588.22;10093421;28;20051;-69
2022/03/08 08:15:05;;;;;;;9.95;4.57;;;;;;;1.58;100.00;102596.06;10075306;28;20066;-70
2022/03/08 08:20:03;;;;;;;9.73;4.38;;;;;;;1.72;100.00;102597.69;10072277;28;20055;-70
2022/03/08 08:24:59;;;;;;;10.30;4.22;;;;;;;2.01;100.00;102590.94;10078486;28;20110;-69
2022/03/08 08:29:56;;;;;;;13.10;3.90;;;;;;;2.20;100.00;102589.19;10106287;28;20509;-68
2022/03/08 08:34:52;;;;;;;9.95;3.95;;;;;;;2.47;100.00;102599.84;10103124;28;20059;-69
2022/03/08 08:39:48;;;;;;;6.43;3.00;;;;;;;2.66;100.00;102598.88;10113077;28;20082;-69
2022/03/08 08:44:45;;;;;;;12.35;3.20;;;;;;;2.84;100.00;102606.22;10109782;28;20047;-69
2022/03/08 08:49:42;;;;;;;8.95;2.90;;;;;;;3.01;100.00;102590.28;10112077;28;20078;-69
2022/03/08 08:54:38;;;;;;;6.47;2.80;;;;;;;3.31;100.00;102590.41;10105107;28;20050;-69
2022/03/08 08:59:35;;;;;;;8.50;3.22;;;;;;;3.56;100.00;102582.25;10108720;28;20142;-69
2022/03/08 09:04:33;;;;;;;7.38;2.80;;;;;;;3.89;100.00;102585.63;10111714;28;20226;-69
2022/03/08 09:09:30;;;;;;;11.07;3.83;;;;;;;4.11;100.00;102580.59;10076216;28;20094;-69
2022/03/08 09:14:26;;;;;;;6.03;2.47;;;;;;;4.35;97.98;102585.00;10084510;28;20050;-69
2022/03/08 09:19:24;;;;;;;7.97;2.50;;;;;;;4.63;96.26;102570.03;10088821;28;20378;-68
2022/03/08 09:24:20;;;;;;;8.52;2.60;;;;;;;4.81;94.09;102574.53;10084076;28;20058;-69
2022/03/08 09:29:17;;;;;;;7.13;2.42;;;;;;;5.01;98.06;102571.47;10077081;28;20115;-69
2022/03/08 09:34:14;;;;;;;9.02;2.55;;;;;;;5.15;97.93;102575.63;10080146;28;20051;-69
2022/03/08 09:39:10;;;;;;;8.43;3.10;;;;;;;5.38;96.89;102560.38;10083020;28;20603;-69
2022/03/08 09:44:14;;;;;;;6.15;3.22;;;;;;;5.56;96.94;102557.53;10076308;28;20086;-69
2022/03/08 09:49:10;;;;;;;9.30;2.90;;;;;;;5.78;90.29;102559.59;10073835;28;20051;-69
2022/03/08 09:54:07;;;;;;;9.73;3.78;;;;;;;6.11;89.30;102551.63;10082840;28;20090;-69
2022/03/08 09:59:04;;;;;;;6.88;2.70;;;;;;;6.36;86.25;102545.00;10105458;28;20520;-69
2022/03/08 10:04:01;;;;;;;7.80;3.10;;;;;;;6.63;86.00;102538.94;10113620;28;20055;-69
2022/03/08 10:09:20;;;;;;;6.43;2.75;;;;;;;6.82;81.06;102543.03;10104893;28;20138;-69
2022/03/08 10:14:39;;;;;;;8.18;2.60;;;;;;;7.19;73.65;102547.94;10083618;28;20124;-69
2022/03/08 10:19:45;;;;;;;6.32;2.67;;;;;;;7.50;61.47;102545.66;10086010;28;20484;-69
2022/03/08 10:24:41;;;;;;;5.20;2.60;;;;;;;8.07;59.42;102534.34;10081890;28;20054;-69
2022/03/08 10:29:39;;;;;;;5.60;2.85;;;;;;;8.04;58.03;102537.59;10079706;28;20047;-69
2022/03/08 10:34:37;;;;;;;5.40;2.38;;;;;;;8.10;60.38;102542.03;10081478;28;20047;-69
2022/03/08 10:39:34;;;;;;;8.00;2.10;;;;;;;8.19;57.55;102535.03;10105969;28;20078;-69
2022/03/08 10:44:39;;;;;;;6.95;2.90;;;;;;;8.26;59.17;102528.53;10103575;28;20089;-70
2022/03/08 10:49:48;;;;;;;6.13;2.38;;;;;;;8.30;58.49;102524.22;10106102;28;20489;-69
2022/03/08 10:54:44;;;;;;;5.28;2.47;;;;;;;8.36;57.29;102525.91;10089432;28;20149;-69
2022/03/08 10:59:54;;;;;;;3.72;1.25;;;;;;;8.61;52.28;102531.63;10106907;28;20070;-69
2022/03/08 11:05:08;;;;;;;3.85;1.80;;;;;;;8.88;51.14;102525.25;10104820;28;20051;-69
2022/03/08 11:10:08;;;;;;;4.43;2.08;;;;;;;9.08;48.75;102512.88;10108580;28;20486;-69
2022/03/08 11:15:06;;;;;;;4.78;1.98;;;;;;;9.50;49.95;102509.25;10081763;28;20083;-69
2022/03/08 11:20:07;;;;;;;5.78;1.92;;;;;;;9.82;49.90;102506.38;10108793;28;20094;-69
2022/03/08 11:25:08;;;;;;;5.55;1.90;;;;;;;9.80;48.40;102506.63;10078754;28;20055;-69
2022/03/08 11:30:30;;;;;;;4.07;1.90;;;;;;;9.65;48.23;102501.09;10072043;28;20054;-69
2022/03/08 11:35:50;;;;;;;6.55;2.58;;;;;;;9.83;46.60;102497.88;10101206;28;20107;-69
2022/03/08 11:41:00;;;;;;;4.93;2.05;;;;;;;10.14;47.17;102494.38;10110605;28;20043;-69
2022/03/08 11:46:10;;;;;;;4.05;1.85;;;;;;;10.47;46.48;102495.81;10083145;28;20046;-69
2022/03/08 11:51:09;;;;;;;4.93;1.35;;;;;;;11.08;43.72;102482.03;10093159;28;20051;-69
2022/03/08 11:56:15;;;;;;;3.30;1.15;;;;;;;11.03;41.21;102473.84;10084042;28;20679;-68
2022/03/08 12:01:31;;;;;;;3.00;0.93;;;;;;;11.23;40.97;102469.41;10083296;28;20079;-69
2022/03/08 12:06:31;;;;;;;3.95;1.38;;;;;;;11.51;40.07;102455.06;10109646;28;20778;-69
2022/03/08 12:11:30;;;;;;;4.57;1.70;;;;;;;11.55;39.94;102456.09;10078024;28;20085;-69
2022/03/08 12:16:49;;;;;;;5.00;1.25;;;;;;;11.63;39.70;102451.13;10093533;28;20131;-69
2022/03/08 12:21:54;;;;;;;2.38;1.20;;;;;;;11.88;37.05;102451.03;10079407;28;20138;-69
2022/03/08 12:26:50;;;;;;;3.22;1.30;;;;;;;12.86;37.61;102440.03;10085602;28;20121;-69
2022/03/08 12:32:06;;;;;;;5.05;1.77;;;;;;;13.69;35.02;102440.63;10079277;28;20051;-69
2022/03/08 12:37:23;;;;;;;4.10;1.10;;;;;;;14.59;34.21;102430.41;10098605;28;20043;-69
2022/03/08 12:42:31;;;;;;;4.18;1.40;;;;;;;15.17;32.88;102433.69;10114327;28;20078;-69
2022/03/08 12:48:11;;;;;;;4.30;1.88;;;;;;;15.45;33.45;102418.75;10106592;28;20051;-70
2022/03/08 12:53:15;;;;;;;4.85;1.70;;;;;;;16.36;31.67;102419.63;10099033;28;20126;-69
2022/03/08 12:58:17;;;;;;;4.30;1.67;;;;;;;16.83;31.66;102417.31;10107741;28;20098;-70
2022/03/08 13:03:20;;;;;;;4.63;1.80;;;;;;;17.34;29.98;102415.81;10092276;28;20093;-69
2022/03/08 13:08:19;;;;;;;3.67;1.70;;;;;;;17.63;29.35;102400.56;10075834;28;20047;-69
2022/03/08 13:13:19;;;;;;;4.43;1.83;;;;;;;17.82;28.66;102414.91;10088512;28;20573;-69
2022/03/08 13:18:24;;;;;;;5.10;2.30;;;;;;;18.72;29.47;102397.41;10094359;28;20090;-69
2022/03/08 13:23:26;;;;;;;4.20;2.00;;;;;;;18.90;28.36;102397.38;10078992;28;20051;-69
2022/03/08 13:28:26;;;;;;;3.75;1.85;;;;;;;18.32;28.04;102387.81;10115426;28;20461;-68
2022/03/08 13:33:30;;;;;;;4.28;1.70;;;;;;;18.26;26.99;102385.22;10127158;28;20150;-68
2022/03/08 13:38:37;;;;;;;4.15;1.73;;;;;;;18.65;27.23;102386.03;10088621;28;20039;-69
2022/03/08 13:43:36;;;;;;;4.80;2.20;;;;;;;19.22;27.27;102387.56;10083078;28;20102;-68
2022/03/08 13:48:44;;;;;;;4.88;1.50;;;;;;;19.19;28.14;102381.88;10105318;28;20046;-69
2022/03/08 13:53:40;;;;;;;4.38;1.77;;;;;;;19.19;25.95;102373.56;10096129;28;20039;-69
2022/03/08 13:58:43;;;;;;;5.30;1.98;;;;;;;19.97;26.03;102373.72;10105401;28;20838;-69
2022/03/08 14:03:44;;;;;;;10.05;1.80;;;;;;;19.56;25.92;102366.25;10118244;28;20051;-69
2022/03/08 14:08:48;;;;;;;4.85;1.95;;;;;;;19.40;25.46;102366.06;10082826;28;20067;-69
2022/03/08 14:13:52;;;;;;;4.85;1.20;;;;;;;19.36;26.02;102359.56;10076085;28;20050;-69
2022/03/08 14:18:56;;;;;;;3.25;1.58;;;;;;;18.81;25.86;102366.13;10103796;28;20043;-68
2022/03/08 14:23:53;;;;;;;3.63;1.38;;;;;;;18.96;25.83;102357.25;10081223;28;20043;-69
2022/03/08 14:28:56;;;;;;;3.28;1.27;;;;;;;18.76;26.33;102358.78;10089634;28;20035;-69
2022/03/08 14:34:13;;;;;;;3.22;1.23;;;;;;;19.13;26.97;102348.81;10085859;28;20789;-68
2022/03/08 14:39:29;;;;;;;4.35;1.70;;;;;;;18.72;27.30;102353.09;10083930;28;20126;-68
2022/03/08 14:44:28;;;;;;;5.63;1.40;;;;;;;18.54;27.22;102351.53;10080430;28;20398;-68
2022/03/08 14:49:26;;;;;;;2.75;1.27;;;;;;;18.38;27.95;102347.69;10089163;28;20426;-69
2022/03/08 14:54:22;;;;;;;4.43;1.60;;;;;;;18.47;27.70;102342.94;10082194;28;20509;-69
2022/03/08 14:59:20;;;;;;;3.53;1.48;;;;;;;17.65;27.14;102331.91;10091033;28;20694;-69
2022/03/08 15:04:17;;;;;;;4.93;1.48;;;;;;;17.61;28.36;102328.97;10094636;28;20046;-69
2022/03/08 15:09:14;;;;;;;3.20;1.52;;;;;;;17.81;27.83;102324.75;10109622;28;20127;-69
2022/03/08 15:14:10;;;;;;;3.53;1.70;;;;;;;18.38;27.70;102317.25;10102455;28;20574;-69
2022/03/08 15:19:12;;;;;;;3.28;1.45;;;;;;;18.47;27.40;102318.84;10095609;28;20121;-69
2022/03/08 15:24:11;;;;;;;6.07;2.70;;;;;;;18.10;27.95;102325.97;10099277;28;20053;-69
2022/03/08 15:29:08;;;;;;;3.95;1.85;;;;;;;17.70;28.11;102320.66;10098553;28;20137;-69
2022/03/08 15:34:06;;;;;;;3.45;1.50;;;;;;;16.65;30.22;102321.69;10101682;28;20133;-69
2022/03/08 15:39:03;;;;;;;6.20;1.83;;;;;;;16.23;31.61;102315.69;10108460;28;20105;-69
2022/03/08 15:44:00;;;;;;;3.78;1.70;;;;;;;15.83;31.51;102323.88;10096015;28;20505;-69
2022/03/08 15:48:56;;;;;;;4.60;1.98;;;;;;;15.41;31.89;102328.72;10094615;28;20049;-70
2022/03/08 15:53:53;;;;;;;3.80;1.77;;;;;;;15.18;31.96;102331.47;10094147;28;20492;-69
2022/03/08 15:58:55;;;;;;;6.47;2.07;;;;;;;14.89;33.16;102329.06;10087351;28;20134;-69
2022/03/08 16:03:51;;;;;;;3.67;1.60;;;;;;;15.50;32.24;102322.19;10094989;28;20102;-69
2022/03/08 16:08:48;;;;;;;8.15;1.42;;;;;;;15.75;31.68;102325.44;10098988;28;20038;-69
2022/03/08 16:13:45;;;;;;;7.38;1.70;;;;;;;15.96;31.95;102329.31;10090306;28;20089;-69
2022/03/08 16:18:41;;;;;;;4.15;1.60;;;;;;;15.70;32.70;102322.78;10086713;28;20065;-70
2022/03/08 16:23:38;;;;;;;6.07;1.73;;;;;;;14.65;34.33;102323.78;10087629;28;20702;-69
2022/03/08 16:28:35;;;;;;;3.88;1.38;;;;;;;14.41;34.08;102335.78;10093627;28;20098;-69
2022/03/08 16:33:32;;;;;;;5.47;1.50;;;;;;;13.82;34.59;102334.63;10083344;28;20074;-68
2022/03/08 16:38:31;;;;;;;3.28;1.05;;;;;;;13.56;36.62;102332.28;10090854;28;20051;-69
2022/03/08 16:43:28;;;;;;;5.28;1.55;;;;;;;13.24;36.36;102336.56;10098923;28;20497;-69
2022/03/08 16:48:26;;;;;;;5.65;1.85;;;;;;;13.02;36.56;102336.34;10091263;28;20035;-69
2022/03/08 16:53:23;;;;;;;3.47;1.35;;;;;;;12.70;38.49;102337.81;10092597;28;20094;-69
2022/03/08 16:58:19;;;;;;;4.43;1.60;;;;;;;11.95;41.80;102338.31;10092843;28;20137;-69
2022/03/08 17:03:16;;;;;;;5.07;1.58;;;;;;;12.15;42.49;102342.78;10099629;28;20039;-69
2022/03/08 17:08:14;;;;;;;5.18;1.63;;;;;;;11.95;44.34;102344.63;10093397;28;20046;-69
2022/03/08 17:13:13;;;;;;;6.03;1.98;;;;;;;11.73;46.20;102346.97;10099578;28;20102;-69
2022/03/08 17:18:10;;;;;;;4.07;1.38;;;;;;;11.50;48.65;102349.31;10089008;28;20075;-69
2022/03/08 17:23:06;;;;;;;4.45;1.70;;;;;;;11.32;49.86;102358.19;10086489;28;20130;-69
2022/03/08 17:28:03;;;;;;;7.38;1.75;;;;;;;11.14;50.77;102368.69;10087406;28;20125;-68
2022/03/08 17:33:00;;;;;;;5.00;1.85;;;;;;;10.97;52.94;102368.22;10087427;28;20042;-69
2022/03/08 17:37:56;;;;;;;6.28;1.58;;;;;;;10.80;55.24;102367.75;10094728;28;20043;-70
2022/03/08 17:42:55;;;;;;;8.30;2.85;;;;;;;10.51;57.90;102376.56;10102652;28;20079;-70
2022/03/08 17:47:52;;;;;;;4.15;1.90;;;;;;;10.41;58.22;102376.59;10095881;28;20086;-70
2022/03/08 17:52:54;;;;;;;6.78;2.72;;;;;;;10.20;57.42;102381.25;10090673;28;20156;-70
2022/03/08 17:57:53;;;;;;;5.63;2.53;;;;;;;10.01;58.56;102383.72;10109329;28;20776;-70
2022/03/08 18:02:51;;;;;;;7.15;2.35;;;;;;;9.83;61.99;102372.22;10079993;28;20042;-70
2022/03/08 18:07:48;;;;;;;6.47;2.38;;;;;;;9.73;63.64;102376.88;10098898;28;20082;-70
2022/03/08 18:12:44;;;;;;;6.75;2.22;;;;;;;9.54;69.19;102373.81;10103099;28;20780;-70
2022/03/08 18:17:41;;;;;;;8.05;2.13;;;;;;;9.44;67.55;102375.44;10089875;28;20050;-69
2022/03/08 18:22:42;;;;;;;6.60;2.53;;;;;;;9.32;74.82;102371.31;10100229;28;20050;-69
2022/03/08 18:27:39;;;;;;;6.53;2.55;;;;;;;9.21;72.52;102375.91;10099395;28;20050;-70
2022/03/08 18:32:35;;;;;;;6.03;2.55;;;;;;;9.06;76.51;102384.88;10108258;28;20138;-70
2022/03/08 18:37:32;;;;;;;5.43;2.40;;;;;;;8.87;71.06;102391.88;10102849;28;20090;-69
2022/03/08 18:42:28;;;;;;;5.28;2.42;;;;;;;8.86;72.21;102385.59;10101106;28;20047;-69
2022/03/08 18:47:25;;;;;;;5.93;2.67;;;;;;;8.67;76.28;102387.13;10082540;28;20067;-70
2022/03/08 18:52:24;;;;;;;7.22;2.40;;;;;;;8.56;79.61;102387.09;10100164;28;20075;-70
2022/03/08 18:57:20;;;;;;;6.60;2.75;;;;;;;8.43;80.42;102390.25;10093558;28;20050;-69
2022/03/08 19:02:17;;;;;;;6.65;3.03;;;;;;;8.30;80.69;102382.50;10106441;28;20046;-70
2022/03/08 19:07:13;;;;;;;6.55;2.78;;;;;;;8.17;80.04;102390.06;10099447;28;20046;-69
2022/03/08 19:12:10;;;;;;;7.97;2.95;;;;;;;8.11;85.14;102401.97;10092204;28;20513;-69
2022/03/08 19:17:06;;;;;;;6.20;2.78;;;;;;;8.03;85.62;102394.31;10079755;28;20107;-69
2022/03/08 19:22:03;;;;;;;9.05;3.38;;;;;;;7.89;85.21;102403.94;10088483;28;20052;-70
2022/03/08 19:26:59;;;;;;;6.65;3.15;;;;;;;7.83;86.77;102394.13;10088185;28;20102;-70
2022/03/08 19:31:56;;;;;;;7.10;3.13;;;;;;;7.73;85.31;102400.28;10075988;28;20054;-69
2022/03/08 19:36:53;;;;;;;6.85;2.75;;;;;;;7.61;87.74;102391.44;10097676;28;20157;-69
2022/03/08 19:41:49;;;;;;;6.15;3.00;;;;;;;7.51;89.09;102392.16;10105623;28;20493;-68
2022/03/08 19:46:46;;;;;;;8.45;3.15;;;;;;;7.28;88.17;102394.06;10090165;28;20087;-70
2022/03/08 19:51:42;;;;;;;9.07;2.85;;;;;;;7.23;91.37;102385.88;10084802;28;20141;-71
2022/03/08 19:56:42;;;;;;;7.68;3.65;;;;;;;7.17;93.24;102381.44;10089618;28;20050;-70
2022/03/08 20:01:39;;;;;;;6.63;3.35;;;;;;;7.10;92.71;102386.25;10097978;28;20090;-71
2022/03/08 20:06:39;;;;;;;7.35;2.70;;;;;;;7.00;94.24;102381.50;10074258;28;20038;-69
2022/03/08 20:11:37;;;;;;;6.63;2.92;;;;;;;7.08;92.53;102383.78;10072922;28;20047;-69
2022/03/08 20:16:34;;;;;;;8.32;3.13;;;;;;;7.05;92.24;102388.91;10087628;28;20583;-69
2022/03/08 20:21:32;;;;;;;6.35;3.08;;;;;;;7.02;92.90;102383.97;10091619;28;20054;-69
2022/03/08 20:26:30;;;;;;;9.73;3.45;;;;;;;6.95;91.38;102395.84;10090790;28;20135;-71
2022/03/08 20:31:27;;;;;;;7.60;3.33;;;;;;;6.85;93.29;102390.31;10092280;28;20147;-71
2022/03/08 20:36:26;;;;;;;6.95;3.17;;;;;;;6.73;94.30;102395.03;10117319;28;20145;-72
2022/03/08 20:41:23;;;;;;;7.63;3.20;;;;;;;6.63;94.92;102398.41;10100282;28;20054;-69
2022/03/08 20:46:19;;;;;;;7.25;3.35;;;;;;;6.46;100.00;102395.72;10095327;28;20128;-73
2022/03/08 20:51:16;;;;;;;7.95;3.42;;;;;;;6.35;98.98;102385.78;10093506;28;20051;-69
2022/03/08 20:56:13;;;;;;;7.95;3.35;;;;;;;6.20;100.00;102382.84;10114795;28;20494;-68
2022/03/08 21:01:10;;;;;;;6.45;3.13;;;;;;;6.15;100.00;102380.00;10112746;28;20043;-69
2022/03/08 21:06:11;;;;;;;7.00;3.35;;;;;;;6.08;100.00;102381.03;10118276;28;20516;-69
2022/03/08 21:11:08;;;;;;;7.65;3.45;;;;;;;5.92;100.00;102381.81;10107918;28;20070;-71
2022/03/08 21:16:05;;;;;;;5.63;2.72;;;;;;;5.87;100.00;102381.69;10088778;28;20047;-71
2022/03/08 21:21:02;;;;;;;7.25;3.13;;;;;;;5.65;100.00;102381.59;10099697;28;20060;-71
2022/03/08 21:26:00;;;;;;;5.45;2.53;;;;;;;5.62;100.00;102382.91;10098070;28;20505;-70
2022/03/08 21:30:58;;;;;;;10.40;3.20;;;;;;;5.66;100.00;102378.66;10114757;28;20125;-71
2022/03/08 21:35:54;;;;;;;7.30;3.03;;;;;;;5.48;100.00;102376.13;10106373;28;20464;-71
2022/03/08 21:40:51;;;;;;;8.45;3.60;;;;;;;5.44;100.00;102381.22;10112343;28;20501;-71
2022/03/08 21:45:48;;;;;;;7.40;3.75;;;;;;;5.34;100.00;102391.03;10116935;28;20078;-71
2022/03/08 21:50:45;;;;;;;9.57;4.22;;;;;;;5.30;100.00;102381.75;10113885;28;20098;-71
2022/03/08 21:55:42;;;;;;;7.43;3.45;;;;;;;5.20;100.00;102380.50;10085447;28;20055;-71
2022/03/08 22:00:38;;;;;;;8.02;4.18;;;;;;;5.10;100.00;102369.44;10103159;28;20070;-70
2022/03/08 22:05:35;;;;;;;7.15;3.90;;;;;;;5.09;100.00;102377.81;10102004;28;20047;-70
2022/03/08 22:10:31;;;;;;;11.43;3.38;;;;;;;5.06;100.00;102379.13;10112964;28;20047;-71
2022/03/08 22:15:28;;;;;;;9.50;3.88;;;;;;;4.97;100.00;102375.13;10085945;28;20074;-72
2022/03/08 22:20:25;;;;;;;6.30;3.05;;;;;;;4.87;100.00;102370.31;10112980;28;20402;-71
2022/03/08 22:25:23;;;;;;;6.97;3.10;;;;;;;4.75;100.00;102373.03;10105306;28;20497;-71
2022/03/08 22:30:19;;;;;;;7.40;3.65;;;;;;;4.71;100.00;102377.31;10102431;28;20075;-72
2022/03/08 22:35:15;;;;;;;8.50;4.28;;;;;;;4.59;100.00;102382.72;10110949;28;20516;-71
2022/03/08 22:40:12;;;;;;;6.97;3.38;;;;;;;4.47;100.00;102375.66;10111403;28;20102;-72
2022/03/08 22:45:10;;;;;;;9.93;4.70;;;;;;;4.49;100.00;102384.38;10101452;28;20138;-70